createdAt,value
2022-10-23T00:01:42.136Z,101037.31
2022-10-23T00:04:16.433Z,101032.16
2022-10-23T00:06:44.189Z,101036.94
2022-10-23T00:09:20.685Z,101034.72
2022-10-23T00:11:50.323Z,101022.72
2022-10-23T00:14:21.367Z,101027.53
2022-10-23T00:16:48.260Z,101022.84
2022-10-23T00:19:15.445Z,101004.66
2022-10-23T00:21:42.580Z,101010.88
2022-10-23T00:26:42.304Z,101020.28
2022-10-23T00:29:10.813Z,101020.88
2022-10-23T00:31:38.540Z,101023.22
2022-10-23T00:34:08.570Z,101020.41
2022-10-23T00:36:36.903Z,101012.03
2022-10-23T00:39:05.324Z,101005.63
2022-10-23T00:41:33.393Z,101001.72
2022-10-23T00:44:08.488Z,100999.59
2022-10-23T00:46:38.829Z,101003.50
2022-10-23T00:49:07.451Z,101005.19
2022-10-23T00:51:42.626Z,101000.16
2022-10-23T00:54:23.584Z,101006.88
2022-10-23T00:56:54.806Z,100999.97
2022-10-23T00:59:21.728Z,100999.81
2022-10-23T01:01:49.065Z,101004.09
2022-10-23T01:04:16.677Z,101001.13
2022-10-23T01:07:04.552Z,100999.53
2022-10-23T01:10:00.127Z,100994.22
2022-10-23T01:13:00.993Z,100988.28
2022-10-23T01:16:01.148Z,100989.06
2022-10-23T01:18:55.123Z,100979.19
2022-10-23T01:21:53.101Z,100971.09
2022-10-23T01:24:50.212Z,100965.97
2022-10-23T01:27:25.854Z,100960.22
2022-10-23T01:30:01.481Z,100961.19
2022-10-23T01:33:09.677Z,100955.47
2022-10-23T01:36:01.112Z,100952.66
2022-10-23T01:38:45.810Z,100959.00
2022-10-23T01:41:33.516Z,100946.03
2022-10-23T01:44:15.928Z,100950.91
2022-10-23T01:46:44.570Z,100945.94
2022-10-23T01:49:14.235Z,100937.06
2022-10-23T01:51:46.874Z,100936.63
2022-10-23T01:54:18.917Z,100931.94
2022-10-23T01:56:48.818Z,100926.31
2022-10-23T01:59:22.747Z,100918.34
2022-10-23T02:01:52.583Z,100928.44
2022-10-23T02:04:27.680Z,100917.19
2022-10-23T02:06:54.622Z,100918.13
2022-10-23T02:09:21.594Z,100912.41
2022-10-23T02:11:59.983Z,100910.78
2022-10-23T02:14:46.632Z,100909.47
2022-10-23T02:17:32.404Z,100906.88
2022-10-23T02:20:19.679Z,100909.03
2022-10-23T02:23:27.360Z,100915.53
2022-10-23T02:26:16.253Z,100903.88
2022-10-23T02:28:50.914Z,100901.50
2022-10-23T02:31:21.799Z,100891.72
2022-10-23T02:33:49.299Z,100888.06
2022-10-23T02:36:18.621Z,100885.06
2022-10-23T02:38:46.518Z,100874.97
2022-10-23T02:41:39.080Z,100880.09
2022-10-23T02:44:28.965Z,100870.63
2022-10-23T02:47:21.749Z,100870.50
2022-10-23T02:50:15.523Z,100865.38
2022-10-23T02:53:25.643Z,100851.22
2022-10-23T02:56:07.369Z,100857.84
2022-10-23T02:59:04.498Z,100850.69
2022-10-23T03:01:46.040Z,100835.97
2022-10-23T03:04:14.950Z,100829.41
2022-10-23T03:06:42.192Z,100842.59
2022-10-23T03:09:10.013Z,100827.78
2022-10-23T03:11:37.162Z,100821.81
2022-10-23T03:14:04.117Z,100814.56
2022-10-23T03:16:31.005Z,100818.97
2022-10-23T03:18:57.968Z,100808.06
2022-10-23T03:21:25.014Z,100812.28
2022-10-23T03:23:51.964Z,100808.91
2022-10-23T03:26:18.939Z,100792.75
2022-10-23T03:28:45.984Z,100796.00
2022-10-23T03:31:12.892Z,100787.88
2022-10-23T03:33:39.842Z,100786.44
2022-10-23T03:36:07.642Z,100789.03
2022-10-23T03:38:34.820Z,100776.75
2022-10-23T03:41:01.698Z,100781.97
2022-10-23T03:43:28.638Z,100776.56
2022-10-23T03:45:57.175Z,100767.59
2022-10-23T03:48:25.033Z,100764.06
2022-10-23T03:50:52.992Z,100765.53
2022-10-23T03:53:19.971Z,100764.78
2022-10-23T03:55:46.921Z,100759.78
2022-10-23T03:58:13.864Z,100772.06
2022-10-23T04:00:40.789Z,100758.75
2022-10-23T04:03:07.723Z,100754.09
2022-10-23T04:05:35.944Z,100761.78
2022-10-23T04:08:02.857Z,100752.25
2022-10-23T04:10:29.750Z,100755.63
2022-10-23T04:12:56.737Z,100740.78
2022-10-23T04:15:23.636Z,100735.25
2022-10-23T04:17:50.531Z,100746.78
2022-10-23T04:20:17.715Z,100739.16
2022-10-23T04:22:45.039Z,100743.66
2022-10-23T04:25:12.855Z,100745.03
2022-10-23T04:27:39.907Z,100746.66
2022-10-23T04:30:07.968Z,100755.66
2022-10-23T04:32:35.220Z,100743.53
2022-10-23T04:35:02.134Z,100741.53
2022-10-23T04:37:29.162Z,100738.25
2022-10-23T04:39:56.199Z,100727.59
2022-10-23T04:42:23.234Z,100726.84
2022-10-23T04:44:50.132Z,100721.38
2022-10-23T04:47:17.053Z,100721.06
2022-10-23T04:49:43.961Z,100728.03
2022-10-23T04:52:10.928Z,100725.09
2022-10-23T04:54:39.183Z,100736.47
2022-10-23T04:57:06.161Z,100730.34
2022-10-23T04:59:33.115Z,100721.31
2022-10-23T05:02:00.117Z,100721.19
2022-10-23T05:04:27.099Z,100713.22
2022-10-23T05:06:54.119Z,100703.28
2022-10-23T05:09:22.341Z,100694.41
2022-10-23T05:11:49.497Z,100698.53
2022-10-23T05:14:20.596Z,100691.97
2022-10-23T05:17:00.380Z,100698.13
2022-10-23T05:19:42.275Z,100693.69
2022-10-23T05:22:11.352Z,100690.50
2022-10-23T05:24:38.270Z,100701.19
2022-10-23T05:27:05.160Z,100679.63
2022-10-23T05:29:32.061Z,100684.00
2022-10-23T05:32:03.559Z,100680.53
2022-10-23T05:34:34.343Z,100676.41
2022-10-23T05:37:03.158Z,100675.44
2022-10-23T05:39:30.211Z,100670.31
2022-10-23T05:41:57.174Z,100659.25
2022-10-23T05:44:24.136Z,100650.59
2022-10-23T05:46:51.123Z,100641.78
2022-10-23T05:49:18.225Z,100636.09
2022-10-23T05:51:45.170Z,100641.41
2022-10-23T05:54:12.111Z,100634.78
2022-10-23T05:56:43.241Z,100632.78
2022-10-23T05:59:10.707Z,100638.47
2022-10-23T06:01:38.160Z,100631.38
2022-10-23T06:04:06.195Z,100634.53
2022-10-23T06:06:33.196Z,100638.91
2022-10-23T06:09:00.173Z,100636.63
2022-10-23T06:11:27.256Z,100635.63
2022-10-23T06:13:54.201Z,100635.53
2022-10-23T06:16:27.777Z,100624.78
2022-10-23T06:18:55.310Z,100612.38
2022-10-23T06:21:22.180Z,100623.06
2022-10-23T06:23:49.255Z,100618.66
2022-10-23T06:26:18.461Z,100612.44
2022-10-23T06:28:46.052Z,100602.78
2022-10-23T06:31:16.377Z,100603.59
2022-10-23T06:33:43.257Z,100608.34
2022-10-23T06:36:10.597Z,100610.28
2022-10-23T06:38:40.388Z,100616.59
2022-10-23T06:41:14.824Z,100613.00
2022-10-23T06:43:42.000Z,100600.50
2022-10-23T06:46:10.061Z,100598.53
2022-10-23T06:48:37.231Z,100605.38
2022-10-23T06:51:11.793Z,100594.97
2022-10-23T06:53:39.100Z,100599.06
2022-10-23T06:56:08.191Z,100594.63
2022-10-23T06:58:36.865Z,100592.53
2022-10-23T07:01:08.266Z,100591.31
2022-10-23T07:03:35.819Z,100609.81
2022-10-23T07:06:05.312Z,100618.22
2022-10-23T07:08:32.563Z,100618.50
2022-10-23T07:11:07.933Z,100617.94
2022-10-23T07:13:36.745Z,100616.69
2022-10-23T07:16:16.748Z,100608.00
2022-10-23T07:18:44.499Z,100603.34
2022-10-23T07:21:11.577Z,100610.69
2022-10-23T07:23:38.702Z,100610.72
2022-10-23T07:26:15.749Z,100608.38
2022-10-23T07:28:46.380Z,100599.25
2022-10-23T07:31:14.623Z,100614.38
2022-10-23T07:33:41.561Z,100604.03
2022-10-23T07:36:09.969Z,100607.25
2022-10-23T07:38:37.483Z,100586.09
2022-10-23T07:41:08.909Z,100580.25
2022-10-23T07:43:38.907Z,100582.78
2022-10-23T07:46:06.040Z,100577.53
2022-10-23T07:48:32.931Z,100595.94
2022-10-23T07:51:10.862Z,100609.97
2022-10-23T07:53:39.237Z,100618.22
2022-10-23T07:56:24.375Z,100620.34
2022-10-23T07:58:53.843Z,100609.47
2022-10-23T08:01:43.194Z,100589.75
2022-10-23T08:04:11.274Z,100575.16
2022-10-23T08:06:38.558Z,100585.66
2022-10-23T08:09:06.806Z,100565.16
2022-10-23T08:11:35.763Z,100564.84
2022-10-23T08:14:05.987Z,100567.13
2022-10-23T08:16:35.603Z,100566.19
2022-10-23T08:19:03.705Z,100558.91
2022-10-23T08:21:30.957Z,100564.69
2022-10-23T08:24:00.307Z,100556.31
2022-10-23T08:26:31.702Z,100555.63
2022-10-23T08:28:59.968Z,100553.53
2022-10-23T08:31:28.373Z,100536.66
2022-10-23T08:33:55.422Z,100534.50
2022-10-23T08:36:28.255Z,100548.75
2022-10-23T08:38:57.575Z,100529.22
2022-10-23T08:41:38.056Z,100524.44
2022-10-23T08:44:38.603Z,100533.81
2022-10-23T08:47:26.727Z,100507.72
2022-10-23T08:50:25.830Z,100514.44
2022-10-23T08:53:02.917Z,100507.00
2022-10-23T08:55:41.505Z,100487.09
2022-10-23T08:58:15.694Z,100503.25
2022-10-23T09:00:43.966Z,100499.69
2022-10-23T09:03:13.184Z,100488.69
2022-10-23T09:05:48.593Z,100473.56
2022-10-23T09:08:32.294Z,100458.66
2022-10-23T09:11:22.594Z,100470.69
2022-10-23T09:14:25.075Z,100457.03
2022-10-23T09:17:23.647Z,100444.63
2022-10-23T09:20:14.884Z,100454.38
2022-10-23T09:22:42.921Z,100441.38
2022-10-23T09:25:24.011Z,100435.44
2022-10-23T09:27:56.252Z,100431.28
2022-10-23T09:30:40.218Z,100419.34
2022-10-23T09:33:34.757Z,100428.06
2022-10-23T09:36:27.519Z,100431.50
2022-10-23T09:38:58.906Z,100443.09
2022-10-23T09:41:40.468Z,100442.41
2022-10-23T09:44:29.784Z,100441.13
2022-10-23T09:47:06.022Z,100430.22
2022-10-23T09:49:35.438Z,100426.09
2022-10-23T09:52:23.015Z,100430.13
2022-10-23T09:54:57.969Z,100432.78
2022-10-23T09:57:44.515Z,100422.47
2022-10-23T10:00:14.845Z,100415.31
2022-10-23T10:03:05.075Z,100414.47
2022-10-23T10:05:32.971Z,100404.50
2022-10-23T10:08:08.997Z,100403.88
2022-10-23T10:10:41.747Z,100412.72
2022-10-23T10:13:32.652Z,100417.59
2022-10-23T10:16:34.159Z,100411.22
2022-10-23T10:19:40.831Z,100402.19
2022-10-23T10:22:35.209Z,100398.84
2022-10-23T10:25:38.067Z,100395.69
2022-10-23T10:28:29.161Z,100402.47
2022-10-23T10:31:13.629Z,100393.66
2022-10-23T10:34:16.609Z,100398.06
2022-10-23T10:36:51.789Z,100395.59
2022-10-23T10:39:32.219Z,100399.06
2022-10-23T10:42:20.198Z,100397.00
2022-10-23T10:45:20.191Z,100397.56
2022-10-23T10:48:38.426Z,100387.31
2022-10-23T10:51:30.480Z,100385.13
2022-10-23T10:54:07.883Z,100390.56
2022-10-23T10:56:39.787Z,100387.63
2022-10-23T10:59:31.556Z,100383.53
2022-10-23T11:02:29.915Z,100372.53
2022-10-23T11:05:24.298Z,100375.41
2022-10-23T11:08:27.964Z,100366.25
2022-10-23T11:11:03.807Z,100358.63
2022-10-23T11:13:40.422Z,100346.34
2022-10-23T11:16:18.736Z,100336.94
2022-10-23T11:19:14.030Z,100337.16
2022-10-23T11:21:56.531Z,100328.44
2022-10-23T11:24:50.010Z,100328.81
2022-10-23T11:28:08.555Z,100325.31
2022-10-23T11:31:10.835Z,100338.88
2022-10-23T11:34:14.806Z,100337.06
2022-10-23T11:36:58.737Z,100348.38
2022-10-23T11:39:29.641Z,100335.19
2022-10-23T11:42:00.956Z,100341.25
2022-10-23T11:44:50.694Z,100330.25
2022-10-23T11:47:40.590Z,100310.41
2022-10-23T11:50:07.610Z,100304.19
2022-10-23T11:53:16.849Z,100307.19
2022-10-23T11:55:59.475Z,100299.66
2022-10-23T11:58:49.886Z,100300.69
2022-10-23T12:01:26.200Z,100295.72
2022-10-23T12:03:56.917Z,100289.91
2022-10-23T12:06:33.179Z,100271.69
2022-10-23T12:09:06.447Z,100269.09
2022-10-23T12:11:48.170Z,100274.53
2022-10-23T12:14:45.594Z,100266.44
2022-10-23T12:17:40.233Z,100258.59
2022-10-23T12:20:19.320Z,100241.84
2022-10-23T12:23:00.831Z,100239.63
2022-10-23T12:25:55.702Z,100235.47
2022-10-23T12:28:40.119Z,100235.47
2022-10-23T12:31:48.171Z,100230.16
2022-10-23T12:34:42.665Z,100243.75
2022-10-23T12:38:02.850Z,100232.88
2022-10-23T12:40:30.470Z,100224.31
2022-10-23T12:43:00.506Z,100212.19
2022-10-23T12:45:40.230Z,100204.03
2022-10-23T12:48:07.275Z,100209.09
2022-10-23T12:50:34.792Z,100187.09
2022-10-23T12:53:08.282Z,100189.78
2022-10-23T12:58:34.118Z,100190.88
2022-10-23T13:01:04.945Z,100195.44
2022-10-23T13:03:34.054Z,100181.13
2022-10-23T13:06:03.368Z,100184.94
2022-10-23T13:08:44.637Z,100186.53
2022-10-23T13:11:17.646Z,100179.28
2022-10-23T13:13:45.111Z,100185.09
2022-10-23T13:16:18.552Z,100178.50
2022-10-23T13:18:45.790Z,100178.91
2022-10-23T13:21:23.360Z,100172.47
2022-10-23T13:23:52.139Z,100179.28
2022-10-23T13:26:33.167Z,100167.75
2022-10-23T13:29:07.526Z,100162.66
2022-10-23T13:31:36.853Z,100157.28
2022-10-23T13:34:16.633Z,100157.53
2022-10-23T13:37:00.091Z,100153.00
2022-10-23T13:39:34.519Z,100155.09
2022-10-23T13:42:14.150Z,100151.31
2022-10-23T13:44:41.938Z,100150.50
2022-10-23T13:47:13.554Z,100142.19
2022-10-23T13:49:40.497Z,100137.44
2022-10-23T13:52:13.562Z,100133.66
2022-10-23T13:54:40.942Z,100142.53
2022-10-23T13:57:14.964Z,100128.84
2022-10-23T13:59:42.265Z,100119.66
2022-10-23T14:02:22.277Z,100132.56
2022-10-23T14:04:50.985Z,100124.19
2022-10-23T14:07:18.281Z,100121.47
2022-10-23T14:09:45.386Z,100117.16
2022-10-23T14:12:13.614Z,100120.22
2022-10-23T14:14:40.692Z,100120.47
2022-10-23T14:17:07.651Z,100117.53
2022-10-23T14:19:35.049Z,100110.22
2022-10-23T14:22:01.982Z,100092.03
2022-10-23T14:24:28.913Z,100095.50
2022-10-23T14:26:57.542Z,100100.28
2022-10-23T14:29:24.709Z,100092.72
2022-10-23T14:31:51.912Z,100080.72
2022-10-23T14:34:18.820Z,100077.28
2022-10-23T14:36:50.278Z,100080.00
2022-10-23T14:39:18.326Z,100068.13
2022-10-23T14:41:45.405Z,100069.50
2022-10-23T14:44:12.339Z,100077.59
2022-10-23T14:46:39.332Z,100077.31
2022-10-23T14:49:06.675Z,100067.34
2022-10-23T14:51:33.790Z,100056.66
2022-10-23T14:54:06.653Z,100052.88
2022-10-23T14:56:36.909Z,100062.44
2022-10-23T14:59:04.749Z,100053.41
2022-10-23T15:01:41.240Z,100065.19
2022-10-23T15:04:11.971Z,100068.94
2022-10-23T15:06:38.913Z,100078.88
2022-10-23T15:09:05.872Z,100071.38
2022-10-23T15:11:32.823Z,100076.72
2022-10-23T15:14:00.851Z,100065.06
2022-10-23T15:16:28.255Z,100063.94
2022-10-23T15:18:55.169Z,100069.97
2022-10-23T15:21:22.178Z,100071.56
2022-10-23T15:23:49.479Z,100069.81
2022-10-23T15:26:23.917Z,100067.38
2022-10-23T15:29:00.297Z,100068.53
2022-10-23T15:31:30.302Z,100068.69
2022-10-23T15:33:58.489Z,100060.50
2022-10-23T15:36:26.300Z,100050.81
2022-10-23T15:38:53.364Z,100042.59
2022-10-23T15:41:42.823Z,100014.78
2022-10-23T15:44:14.496Z,100017.59
2022-10-23T15:46:41.541Z,100009.31
2022-10-23T15:49:08.753Z,100014.03
2022-10-23T15:51:37.369Z,100006.75
2022-10-23T15:54:06.709Z,100004.50
2022-10-23T15:56:35.331Z,100007.44
2022-10-23T15:59:02.727Z,100003.22
2022-10-23T16:01:29.849Z,99988.03
2022-10-23T16:03:56.927Z,99977.75
2022-10-23T16:06:26.735Z,99971.22
2022-10-23T16:11:29.699Z,99940.66
2022-10-23T16:13:58.570Z,99923.06
2022-10-23T16:16:26.064Z,99929.47
2022-10-23T16:18:53.080Z,99933.06
2022-10-23T16:21:29.265Z,99939.88
2022-10-23T16:23:59.301Z,99937.09
2022-10-23T16:26:28.151Z,99953.50
2022-10-23T16:29:02.256Z,99963.50
2022-10-23T16:31:29.956Z,99949.78
2022-10-23T16:34:01.466Z,99950.47
2022-10-23T16:36:29.485Z,99935.66
2022-10-23T16:38:56.841Z,99933.34
2022-10-23T16:41:23.793Z,99935.66
2022-10-23T16:43:50.660Z,99925.81
2022-10-23T16:46:21.226Z,99925.75
2022-10-23T16:48:50.239Z,99921.81
2022-10-23T16:51:23.838Z,99892.91
2022-10-23T16:53:52.456Z,99915.34
2022-10-23T16:56:23.239Z,99927.78
2022-10-23T16:58:50.796Z,99916.06
2022-10-23T17:01:21.874Z,99894.97
2022-10-23T17:03:52.184Z,99879.59
2022-10-23T17:06:25.654Z,99875.75
2022-10-23T17:08:52.936Z,99876.91
2022-10-23T17:11:26.699Z,99882.00
2022-10-23T17:13:59.272Z,99906.56
2022-10-23T17:16:34.893Z,99896.56
2022-10-23T17:19:04.298Z,99884.63
2022-10-23T17:21:39.660Z,99898.88
2022-10-23T17:24:07.611Z,99950.56
2022-10-23T17:26:35.285Z,99990.69
2022-10-23T17:29:04.941Z,99975.59
2022-10-23T17:31:38.504Z,99994.63
2022-10-23T17:34:10.580Z,100008.22
2022-10-23T17:36:43.517Z,99999.41
2022-10-23T17:39:17.859Z,100008.34
2022-10-23T17:41:45.106Z,100002.28
2022-10-23T17:44:12.361Z,99987.16
2022-10-23T17:46:39.528Z,99991.34
2022-10-23T17:49:06.755Z,99991.09
2022-10-23T17:51:35.756Z,99996.78
2022-10-23T17:54:09.752Z,99989.97
2022-10-23T17:56:38.351Z,100000.47
2022-10-23T17:59:10.353Z,100010.84
2022-10-23T18:01:38.482Z,100029.34
2022-10-23T18:04:07.506Z,100042.63
2022-10-23T18:06:41.541Z,100047.63
2022-10-23T18:09:08.517Z,100045.88
2022-10-23T18:11:42.605Z,100049.94
2022-10-23T18:14:14.606Z,100050.50
2022-10-23T18:16:41.949Z,100068.44
2022-10-23T18:19:09.299Z,100073.53
2022-10-23T18:21:37.897Z,100089.03
2022-10-23T18:24:05.297Z,100078.63
2022-10-23T18:26:37.705Z,100090.50
2022-10-23T18:29:07.818Z,100090.25
2022-10-23T18:31:37.115Z,100092.91
2022-10-23T18:34:15.654Z,100086.41
2022-10-23T18:36:42.581Z,100093.59
2022-10-23T18:39:14.984Z,100079.94
2022-10-23T18:41:44.504Z,100085.41
2022-10-23T18:44:17.473Z,100083.94
2022-10-23T18:46:46.696Z,100086.13
2022-10-23T18:49:15.216Z,100089.91
2022-10-23T18:51:42.267Z,100086.13
2022-10-23T18:54:13.968Z,100085.25
2022-10-23T18:56:41.178Z,100097.16
2022-10-23T18:59:17.345Z,100098.88
2022-10-23T19:01:44.638Z,100095.22
2022-10-23T19:04:13.053Z,100102.22
2022-10-23T19:06:40.335Z,100106.72
2022-10-23T19:09:09.353Z,100108.03
2022-10-23T19:11:37.113Z,100107.47
2022-10-23T19:14:04.923Z,100109.72
2022-10-23T19:16:41.474Z,100106.44
2022-10-23T19:19:17.422Z,100101.66
2022-10-23T19:21:45.153Z,100109.31
2022-10-23T19:24:19.074Z,100108.16
2022-10-23T19:26:46.427Z,100112.78
2022-10-23T19:29:19.139Z,100115.50
2022-10-23T19:31:49.246Z,100118.22
2022-10-23T19:34:20.043Z,100114.81
2022-10-23T19:36:48.655Z,100114.69
2022-10-23T19:39:16.828Z,100107.53
2022-10-23T19:41:44.213Z,100108.16
2022-10-23T19:44:12.592Z,100109.97
2022-10-23T19:46:39.519Z,100113.81
2022-10-23T19:49:06.747Z,100109.81
2022-10-23T19:51:33.624Z,100108.84
2022-10-23T19:54:01.159Z,100110.72
2022-10-23T19:56:28.292Z,100119.13
2022-10-23T19:58:55.373Z,100114.16
2022-10-23T20:01:25.577Z,100134.38
2022-10-23T20:03:53.146Z,100145.81
2022-10-23T20:06:27.557Z,100138.44
2022-10-23T20:08:54.971Z,100136.66
2022-10-23T20:11:28.942Z,100138.22
2022-10-23T20:13:57.193Z,100148.84
2022-10-23T20:16:28.598Z,100155.50
2022-10-23T20:18:56.060Z,100146.38
2022-10-23T20:21:23.774Z,100126.63
2022-10-23T20:23:51.252Z,100118.53
2022-10-23T20:26:21.987Z,100126.03
2022-10-23T20:28:53.283Z,100139.94
2022-10-23T20:31:23.025Z,100141.13
2022-10-23T20:33:50.910Z,100132.13
2022-10-23T20:36:36.217Z,100136.97
2022-10-23T20:39:07.700Z,100139.84
2022-10-23T20:41:37.175Z,100140.34
2022-10-23T20:44:07.238Z,100138.63
2022-10-23T20:46:34.700Z,100137.53
2022-10-23T20:49:01.664Z,100132.38
2022-10-23T20:51:28.591Z,100131.22
2022-10-23T20:53:55.639Z,100131.59
2022-10-23T20:56:32.773Z,100121.09
2022-10-23T20:59:11.180Z,100125.38
2022-10-23T21:01:43.498Z,100121.38
2022-10-23T21:04:13.562Z,100120.88
2022-10-23T21:06:57.449Z,100115.66
2022-10-23T21:09:30.607Z,100108.47
2022-10-23T21:11:57.810Z,100108.00
2022-10-23T21:14:24.738Z,100118.63
2022-10-23T21:16:51.680Z,100123.44
2022-10-23T21:19:18.672Z,100108.91
2022-10-23T21:21:45.611Z,100111.28
2022-10-23T21:24:16.323Z,100107.41
2022-10-23T21:26:44.660Z,100115.88
2022-10-23T21:29:18.489Z,100109.16
2022-10-23T21:31:54.494Z,100119.31
2022-10-23T21:34:22.136Z,100118.50
2022-10-23T21:37:11.429Z,100107.13
2022-10-23T21:39:36.095Z,100102.75
2022-10-23T21:42:03.060Z,100091.47
2022-10-23T21:44:29.973Z,100088.09
2022-10-23T21:46:56.936Z,100094.94
2022-10-23T21:49:23.842Z,100080.59
2022-10-23T21:51:50.702Z,100085.56
2022-10-23T21:54:17.760Z,100063.59
2022-10-23T21:56:45.674Z,100070.63
2022-10-23T21:59:18.241Z,100076.41
2022-10-23T22:01:47.274Z,100060.81
2022-10-23T22:04:17.159Z,100061.28
2022-10-23T22:06:46.163Z,100062.88
2022-10-23T22:09:17.390Z,100052.50
2022-10-23T22:11:44.386Z,100056.19
2022-10-23T22:14:11.288Z,100056.31
2022-10-23T22:16:38.215Z,100056.16
2022-10-23T22:19:05.140Z,100049.38
2022-10-23T22:21:32.303Z,100055.72
2022-10-23T22:24:01.074Z,100041.75
2022-10-23T22:26:32.731Z,100043.34
2022-10-23T22:29:06.441Z,100043.47
2022-10-23T22:31:35.324Z,100043.94
2022-10-23T22:34:13.386Z,100050.19
2022-10-23T22:36:52.389Z,100044.06
2022-10-23T22:39:19.330Z,100047.31
2022-10-23T22:41:47.553Z,100043.13
2022-10-23T22:44:15.255Z,100037.94
2022-10-23T22:46:43.209Z,100041.41
2022-10-23T22:49:10.310Z,100034.53
2022-10-23T22:51:39.508Z,100026.66
2022-10-23T22:54:07.012Z,100028.91
2022-10-23T22:56:34.832Z,100023.34
2022-10-23T22:59:02.258Z,100031.41
2022-10-23T23:01:43.848Z,100051.78
2022-10-23T23:04:36.790Z,100044.97
2022-10-23T23:07:05.164Z,100037.06
2022-10-23T23:09:32.200Z,100035.81
2022-10-23T23:11:59.102Z,100036.72
2022-10-23T23:14:25.996Z,100042.06
2022-10-23T23:16:53.582Z,100046.25
2022-10-23T23:19:23.379Z,100051.72
2022-10-23T23:21:50.758Z,100036.16
2022-10-23T23:24:17.737Z,100026.03
2022-10-23T23:26:44.630Z,100021.50
2022-10-23T23:29:12.034Z,100029.22
2022-10-23T23:31:39.115Z,100017.56
2022-10-23T23:34:06.083Z,100017.66
2022-10-23T23:36:33.965Z,100024.63
2022-10-23T23:39:01.449Z,100014.47
2022-10-23T23:41:29.556Z,100019.53
2022-10-23T23:43:58.321Z,100023.81
2022-10-23T23:46:25.838Z,100020.25
2022-10-23T23:48:52.758Z,100024.59
2022-10-23T23:51:23.318Z,100030.75
2022-10-23T23:53:51.631Z,100020.72
2022-10-23T23:56:19.061Z,100016.13
2022-10-23T23:58:45.994Z,100035.91
